Time;durP1;ratioP1;P1;durP2;ratioP2;P2;SDS_P1;SDS_P2;PMS_P1;PMS_P2;Temp;Humidity;BMP_temperature;BMP_pressure;BME280_temperature;BME280_humidity;BME280_pressure;Samples;Min_cycle;Max_cycle;Signal;HPM_P1;HPM_P2
2022/06/08 00:01:10;;;;;;;;;;;;;;;;;;5065940;28;1232;-75
2022/06/08 00:03:45;;;;;;;;;;;;;;;;;;5065866;28;1214;-75
2022/06/08 00:06:10;;;;;;;;;;;;;;;;;;5062491;28;1321;-75
2022/06/08 00:08:35;;;;;;;;;;;;;;;;;;5063529;28;1249;-75
2022/06/08 00:11:00;;;;;;;;;;;;;;;;;;5085459;28;1236;-75
2022/06/08 00:13:26;;;;;;;;;;;;;;;;;;5065513;28;1323;-74
2022/06/08 00:15:53;;;;;;;;;;;;;;;;;;5085547;28;1135;-74
2022/06/08 00:18:19;;;;;;;;;;;;;;;;;;5085068;28;1901;-74
2022/06/08 00:20:45;;;;;;;;;;;;;;;;;;5085395;28;1277;-75
2022/06/08 00:23:11;;;;;;;;;;;;;;;;;;5047705;28;1262;-75
2022/06/08 00:25:37;;;;;;;;;;;;;;;;;;5045497;28;1214;-74
2022/06/08 00:28:03;;;;;;;;;;;;;;;;;;5062784;28;1125;-74
2022/06/08 00:30:29;;;;;;;;;;;;;;;;;;5046827;28;1269;-74
2022/06/08 00:32:54;;;;;;;;;;;;;;;;;;5065774;28;1211;-74
2022/06/08 00:35:19;;;;;;;;;;;;;;;;;;5063735;28;1079;-75
2022/06/08 00:37:45;;;;;;;;;;;;;;;;;;5063538;28;1219;-75
2022/06/08 00:40:12;;;;;;;;;;;;;;;;;;5064742;28;1909;-75
2022/06/08 00:42:40;;;;;;;;;;;;;;;;;;5081425;28;1155;-74
2022/06/08 00:45:14;;;;;;;;;;;;;;;;;;5084711;28;1157;-74
2022/06/08 00:47:46;;;;;;;;;;;;;;;;;;5085931;28;1096;-74
2022/06/08 00:50:19;;;;;;;;;;;;;;;;;;5085089;28;1286;-75
2022/06/08 00:52:45;;;;;;;;;;;;;;;;;;5081788;28;1459;-74
2022/06/08 00:55:13;;;;;;;;;;;;;;;;;;5080592;28;1150;-75
2022/06/08 00:58:12;;;;;;;;;;;;;;;;;;5081253;28;1382;-74
2022/06/08 01:00:38;;;;;;;;;;;;;;;;;;5060769;28;1319;-76
2022/06/08 01:03:05;;;;;;;;;;;;;;;;;;5084351;28;1293;-75
2022/06/08 01:05:35;;;;;;;;;;;;;;;;;;5081590;28;1194;-74
2022/06/08 01:08:05;;;;;;;;;;;;;;;;;;5081525;28;1261;-74
2022/06/08 01:10:42;;;;;;;;;;;;;;;;;;5079661;28;1293;-74
2022/06/08 01:13:08;;;;;;;;;;;;;;;;;;5060629;28;1105;-75
2022/06/08 01:15:35;;;;;;;;;;;;;;;;;;5062608;28;1329;-75
2022/06/08 01:18:00;;;;;;;;;;;;;;;;;;5064506;28;1135;-75
2022/06/08 01:20:25;;;;;;;;;;;;;;;;;;5062107;28;1881;-75
2022/06/08 01:22:51;;;;;;;;;;;;;;;;;;5070995;28;1280;-75
2022/06/08 01:25:17;;;;;;;;;;;;;;;;;;5079596;28;1226;-75
2022/06/08 01:27:42;;;;;;;;;;;;;;;;;;5081475;28;1427;-75
2022/06/08 01:30:28;;;;;;;;;;;;;;;;;;5085585;28;1206;-75
2022/06/08 01:32:56;;;;;;;;;;;;;;;;;;5083227;28;1180;-74
2022/06/08 01:35:36;;;;;;;;;;;;;;;;;;5083095;28;1410;-74
2022/06/08 01:38:16;;;;;;;;;;;;;;;;;;5082735;28;1265;-75
2022/06/08 01:40:54;;;;;;;;;;;;;;;;;;5081973;28;1249;-75
2022/06/08 01:43:26;;;;;;;;;;;;;;;;;;5075491;28;1135;-74
2022/06/08 01:45:51;;;;;;;;;;;;;;;;;;5082887;28;1226;-75
2022/06/08 01:48:35;;;;;;;;;;;;;;;;;;5084150;28;1269;-75
2022/06/08 01:51:06;;;;;;;;;;;;;;;;;;5085037;28;1155;-74
2022/06/08 01:53:37;;;;;;;;;;;;;;;;;;5078557;28;1264;-75
2022/06/08 01:56:08;;;;;;;;;;;;;;;;;;5073624;28;1288;-74
2022/06/08 01:58:33;;;;;;;;;;;;;;;;;;5075744;28;1973;-75
2022/06/08 02:01:02;;;;;;;;;;;;;;;;;;5084455;28;1155;-75
2022/06/08 02:03:39;;;;;;;;;;;;;;;;;;5080877;28;1273;-75
2022/06/08 02:06:18;;;;;;;;;;;;;;;;;;5085258;28;1207;-75
2022/06/08 02:09:03;;;;;;;;;;;;;;;;;;5058390;28;1155;-74
2022/06/08 02:11:28;;;;;;;;;;;;;;;;;;5061890;28;1089;-74
2022/06/08 02:14:05;;;;;;;;;;;;;;;;;;5061026;28;1227;-75
2022/06/08 02:16:36;;;;;;;;;;;;;;;;;;5064522;28;1163;-75
2022/06/08 02:19:06;;;;;;;;;;;;;;;;;;5063607;28;2007;-75
2022/06/08 02:21:37;;;;;;;;;;;;;;;;;;5061866;28;1175;-75
2022/06/08 02:24:11;;;;;;;;;;;;;;;;;;5075395;28;1364;-75
2022/06/08 02:26:42;;;;;;;;;;;;;;;;;;5083225;28;1174;-74
2022/06/08 02:29:15;;;;;;;;;;;;;;;;;;5082509;28;1225;-74
2022/06/08 02:31:49;;;;;;;;;;;;;;;;;;5087529;28;1302;-74
2022/06/08 02:34:28;;;;;;;;;;;;;;;;;;5087906;28;1178;-75
2022/06/08 02:37:12;;;;;;;;;;;;;;;;;;5086770;28;1052;-75
2022/06/08 02:39:43;;;;;;;;;;;;;;;;;;5079444;28;1886;-75
2022/06/08 02:42:12;;;;;;;;;;;;;;;;;;5064056;28;1309;-75
2022/06/08 02:44:39;;;;;;;;;;;;;;;;;;5067342;28;1128;-74
2022/06/08 02:47:10;;;;;;;;;;;;;;;;;;5066593;28;1198;-75
2022/06/08 02:49:36;;;;;;;;;;;;;;;;;;5067372;28;1235;-74
2022/06/08 02:52:08;;;;;;;;;;;;;;;;;;5063086;28;1214;-75
2022/06/08 02:54:33;;;;;;;;;;;;;;;;;;5065184;28;1140;-75
2022/06/08 02:56:58;;;;;;;;;;;;;;;;;;5066133;28;1117;-74
2022/06/08 02:59:42;;;;;;;;;;;;;;;;;;5065249;28;1925;-74
2022/06/08 03:02:12;;;;;;;;;;;;;;;;;;5066822;28;1175;-74
2022/06/08 03:04:53;;;;;;;;;;;;;;;;;;5066496;28;1152;-74
2022/06/08 03:07:23;;;;;;;;;;;;;;;;;;5062587;28;1230;-75
2022/06/08 03:09:50;;;;;;;;;;;;;;;;;;5064247;28;1175;-75
2022/06/08 03:12:24;;;;;;;;;;;;;;;;;;5064457;28;1145;-74
2022/06/08 03:14:49;;;;;;;;;;;;;;;;;;5084587;28;1139;-76
2022/06/08 03:17:16;;;;;;;;;;;;;;;;;;5085408;28;1215;-75
2022/06/08 03:19:41;;;;;;;;;;;;;;;;;;5085423;28;1950;-74
2022/06/08 03:22:06;;;;;;;;;;;;;;;;;;5082346;28;1229;-74
2022/06/08 03:24:32;;;;;;;;;;;;;;;;;;5084127;28;1264;-75
2022/06/08 03:27:01;;;;;;;;;;;;;;;;;;5083183;28;1173;-75
2022/06/08 03:29:27;;;;;;;;;;;;;;;;;;5085815;28;1178;-74
2022/06/08 03:31:52;;;;;;;;;;;;;;;;;;5085922;28;1248;-75
2022/06/08 03:34:18;;;;;;;;;;;;;;;;;;5084652;28;1277;-74
2022/06/08 03:36:43;;;;;;;;;;;;;;;;;;5085472;28;1320;-75
2022/06/08 03:39:09;;;;;;;;;;;;;;;;;;5083294;28;1954;-75
2022/06/08 03:41:34;;;;;;;;;;;;;;;;;;5067826;28;1292;-75
2022/06/08 03:44:00;;;;;;;;;;;;;;;;;;5081980;28;1245;-75
2022/06/08 03:46:29;;;;;;;;;;;;;;;;;;5087220;28;1199;-75
2022/06/08 03:48:57;;;;;;;;;;;;;;;;;;5068124;28;1372;-74
2022/06/08 03:51:22;;;;;;;;;;;;;;;;;;5086898;28;1293;-75
2022/06/08 03:53:52;;;;;;;;;;;;;;;;;;5081014;28;1233;-76
2022/06/08 03:56:17;;;;;;;;;;;;;;;;;;5086631;28;1308;-77
2022/06/08 03:58:43;;;;;;;;;;;;;;;;;;5081404;28;1972;-77
2022/06/08 04:01:10;;;;;;;;;;;;;;;;;;5085789;28;1206;-76
2022/06/08 04:03:35;;;;;;;;;;;;;;;;;;5081565;28;1223;-75
2022/06/08 04:06:00;;;;;;;;;;;;;;;;;;5048217;28;1387;-76
2022/06/08 04:08:31;;;;;;;;;;;;;;;;;;5045523;28;1182;-76
2022/06/08 04:10:57;;;;;;;;;;;;;;;;;;5047337;28;1243;-76
2022/06/08 04:13:22;;;;;;;;;;;;;;;;;;5062859;28;1137;-76
2022/06/08 04:15:48;;;;;;;;;;;;;;;;;;5064701;28;1273;-76
2022/06/08 04:18:17;;;;;;;;;;;;;;;;;;5064719;28;1902;-74
2022/06/08 04:20:44;;;;;;;;;;;;;;;;;;5063341;28;1312;-76
2022/06/08 04:23:09;;;;;;;;;;;;;;;;;;5060645;28;1159;-76
2022/06/08 04:25:35;;;;;;;;;;;;;;;;;;5062742;28;1121;-76
2022/06/08 04:28:01;;;;;;;;;;;;;;;;;;5063731;28;1276;-76
2022/06/08 04:30:26;;;;;;;;;;;;;;;;;;5068238;28;1203;-76
2022/06/08 04:32:52;;;;;;;;;;;;;;;;;;5084114;28;1285;-76
2022/06/08 04:35:17;;;;;;;;;;;;;;;;;;5064665;28;1128;-76
2022/06/08 04:37:42;;;;;;;;;;;;;;;;;;5042951;28;1155;-77
2022/06/08 04:40:09;;;;;;;;;;;;;;;;;;5044932;28;1898;-76
2022/06/08 04:42:35;;;;;;;;;;;;;;;;;;5059425;28;1295;-76
2022/06/08 04:45:01;;;;;;;;;;;;;;;;;;5062509;28;1148;-76
2022/06/08 04:47:27;;;;;;;;;;;;;;;;;;5063054;28;1288;-76
2022/06/08 04:49:55;;;;;;;;;;;;;;;;;;5059386;28;1218;-76
2022/06/08 04:52:21;;;;;;;;;;;;;;;;;;5062827;28;1278;-76
2022/06/08 04:54:47;;;;;;;;;;;;;;;;;;5059901;28;1084;-76
2022/06/08 04:57:13;;;;;;;;;;;;;;;;;;5060904;28;1183;-76
2022/06/08 04:59:40;;;;;;;;;;;;;;;;;;5059990;28;1995;-76
2022/06/08 05:02:06;;;;;;;;;;;;;;;;;;5062533;28;1198;-77
2022/06/08 05:04:31;;;;;;;;;;;;;;;;;;5065391;28;1109;-78
2022/06/08 05:06:56;;;;;;;;;;;;;;;;;;5074786;28;1085;-78
2022/06/08 05:09:25;;;;;;;;;;;;;;;;;;5063156;28;1204;-76
2022/06/08 05:11:54;;;;;;;;;;;;;;;;;;5081757;28;1029;-78
2022/06/08 05:14:19;;;;;;;;;;;;;;;;;;5083045;28;1247;-78
2022/06/08 05:16:48;;;;;;;;;;;;;;;;;;5064134;28;1203;-77
2022/06/08 05:19:13;;;;;;;;;;;;;;;;;;5064733;28;1893;-76
2022/06/08 05:21:40;;;;;;;;;;;;;;;;;;5083238;28;1177;-75
2022/06/08 05:24:05;;;;;;;;;;;;;;;;;;5060854;28;1119;-75
2022/06/08 05:26:30;;;;;;;;;;;;;;;;;;5066578;28;1155;-75
2022/06/08 05:28:56;;;;;;;;;;;;;;;;;;5082565;28;1096;-75
2022/06/08 05:31:21;;;;;;;;;;;;;;;;;;5086487;28;1275;-75
2022/06/08 05:33:47;;;;;;;;;;;;;;;;;;5064877;28;1208;-75
2022/06/08 05:36:12;;;;;;;;;;;;;;;;;;5067495;28;1224;-75
2022/06/08 05:38:43;;;;;;;;;;;;;;;;;;5077891;28;1950;-75
2022/06/08 05:41:08;;;;;;;;;;;;;;;;;;5084187;28;1133;-75
2022/06/08 05:43:33;;;;;;;;;;;;;;;;;;5062334;28;1107;-75
2022/06/08 05:45:59;;;;;;;;;;;;;;;;;;5081417;28;1272;-75
2022/06/08 05:48:28;;;;;;;;;;;;;;;;;;5083862;28;1144;-75
2022/06/08 05:50:53;;;;;;;;;;;;;;;;;;5080640;28;1280;-75
2022/06/08 05:53:18;;;;;;;;;;;;;;;;;;5079961;28;1180;-75
2022/06/08 05:55:44;;;;;;;;;;;;;;;;;;5059479;28;1144;-75
2022/06/08 05:58:10;;;;;;;;;;;;;;;;;;5059241;28;1184;-75
2022/06/08 06:00:37;;;;;;;;;;;;;;;;;;5063052;28;1976;-75
2022/06/08 06:03:03;;;;;;;;;;;;;;;;;;5080198;28;1145;-75
2022/06/08 06:05:30;;;;;;;;;;;;;;;;;;5088319;28;1192;-74
2022/06/08 06:07:56;;;;;;;;;;;;;;;;;;5086712;28;1345;-75
2022/06/08 06:10:22;;;;;;;;;;;;;;;;;;5082200;28;1304;-75
2022/06/08 06:12:48;;;;;;;;;;;;;;;;;;5084780;28;1182;-74
2022/06/08 06:15:14;;;;;;;;;;;;;;;;;;5085108;28;1201;-75
2022/06/08 06:17:39;;;;;;;;;;;;;;;;;;5087517;28;1288;-75
2022/06/08 06:20:05;;;;;;;;;;;;;;;;;;5084294;28;1957;-75
2022/06/08 06:22:33;;;;;;;;;;;;;;;;;;5088075;28;1140;-75
2022/06/08 06:24:58;;;;;;;;;;;;;;;;;;5063619;28;1300;-75
2022/06/08 06:27:24;;;;;;;;;;;;;;;;;;5084749;28;1187;-75
2022/06/08 06:29:51;;;;;;;;;;;;;;;;;;5084011;28;1304;-74
2022/06/08 06:32:21;;;;;;;;;;;;;;;;;;5071696;28;1196;-75
2022/06/08 06:34:47;;;;;;;;;;;;;;;;;;5085634;28;1192;-74
2022/06/08 06:37:12;;;;;;;;;;;;;;;;;;5086622;28;1254;-75
2022/06/08 06:39:37;;;;;;;;;;;;;;;;;;5083574;28;1990;-75
2022/06/08 06:42:03;;;;;;;;;;;;;;;;;;5083231;28;1285;-75
2022/06/08 06:44:28;;;;;;;;;;;;;;;;;;5086165;28;1324;-75
2022/06/08 06:46:53;;;;;;;;;;;;;;;;;;5086205;28;1124;-75
2022/06/08 06:49:20;;;;;;;;;;;;;;;;;;5069753;28;1210;-75
2022/06/08 06:51:46;;;;;;;;;;;;;;;;;;5086332;28;1253;-75
2022/06/08 06:54:12;;;;;;;;;;;;;;;;;;5079801;28;1287;-75
2022/06/08 06:56:37;;;;;;;;;;;;;;;;;;5086536;28;1160;-75
2022/06/08 06:59:03;;;;;;;;;;;;;;;;;;5084281;28;1909;-75
2022/06/08 07:01:29;;;;;;;;;;;;;;;;;;5087396;28;1298;-75
2022/06/08 07:03:54;;;;;;;;;;;;;;;;;;5083966;28;1080;-75
2022/06/08 07:06:19;;;;;;;;;;;;;;;;;;5087432;28;1360;-75
2022/06/08 07:08:48;;;;;;;;;;;;;;;;;;5084572;28;1093;-75
2022/06/08 07:11:32;;;;;;;;;;;;;;;;;;5084415;28;1308;-74
2022/06/08 07:13:59;;;;;;;;;;;;;;;;;;5082103;28;1233;-75
2022/06/08 07:16:24;;;;;;;;;;;;;;;;;;5084223;28;1233;-75
2022/06/08 07:18:52;;;;;;;;;;;;;;;;;;5082510;28;1960;-74
2022/06/08 07:21:18;;;;;;;;;;;;;;;;;;5086141;28;1381;-73
2022/06/08 07:23:44;;;;;;;;;;;;;;;;;;5065075;28;1285;-74
2022/06/08 07:26:09;;;;;;;;;;;;;;;;;;5063900;28;1360;-75
2022/06/08 07:28:35;;;;;;;;;;;;;;;;;;5064373;28;1157;-73
2022/06/08 07:31:00;;;;;;;;;;;;;;;;;;5047060;28;1274;-75
2022/06/08 07:33:26;;;;;;;;;;;;;;;;;;5065438;28;1360;-75
2022/06/08 07:35:54;;;;;;;;;;;;;;;;;;5066387;28;1203;-75
2022/06/08 07:38:20;;;;;;;;;;;;;;;;;;5083143;28;1952;-76
2022/06/08 07:40:46;;;;;;;;;;;;;;;;;;5063515;28;1222;-75
2022/06/08 07:43:11;;;;;;;;;;;;;;;;;;5065518;28;1197;-75
2022/06/08 07:45:36;;;;;;;;;;;;;;;;;;5084236;28;1183;-75
2022/06/08 07:50:46;;;;;;;;;;;;;;;;;;5086455;28;1173;-75
2022/06/08 07:53:11;;;;;;;;;;;;;;;;;;5083262;28;1120;-75
2022/06/08 07:55:37;;;;;;;;;;;;;;;;;;5063946;28;1136;-75
2022/06/08 07:58:03;;;;;;;;;;;;;;;;;;5066837;28;1252;-75
2022/06/08 08:00:29;;;;;;;;;;;;;;;;;;5085203;28;2434;-74
2022/06/08 08:02:55;;;;;;;;;;;;;;;;;;5065817;28;1108;-74
2022/06/08 08:05:22;;;;;;;;;;;;;;;;;;5065066;28;1321;-75
2022/06/08 08:07:47;;;;;;;;;;;;;;;;;;5064691;28;1282;-74
2022/06/08 08:10:14;;;;;;;;;;;;;;;;;;5059066;28;1214;-75
2022/06/08 08:12:39;;;;;;;;;;;;;;;;;;5064037;28;1285;-74
2022/06/08 08:15:05;;;;;;;;;;;;;;;;;;5051091;28;1162;-75
2022/06/08 08:17:31;;;;;;;;;;;;;;;;;;5064186;28;1212;-74
2022/06/08 08:19:59;;;;;;;;;;;;;;;;;;5064078;28;1906;-75
2022/06/08 08:22:24;;;;;;;;;;;;;;;;;;5063344;28;1292;-74
2022/06/08 08:24:50;;;;;;;;;;;;;;;;;;5043539;28;1379;-74
2022/06/08 08:27:15;;;;;;;;;;;;;;;;;;5061846;28;1209;-76
2022/06/08 08:29:41;;;;;;;;;;;;;;;;;;5064372;28;1347;-76
2022/06/08 08:32:09;;;;;;;;;;;;;;;;;;5062827;28;1156;-76
2022/06/08 08:34:35;;;;;;;;;;;;;;;;;;5069141;28;1188;-76
2022/06/08 08:37:00;;;;;;;;;;;;;;;;;;5064679;28;1163;-76
2022/06/08 08:39:25;;;;;;;;;;;;;;;;;;5061844;28;1889;-76
2022/06/08 08:44:43;;;;;;;;;;;;;;;;;;5085859;28;1047;-77
2022/06/08 08:47:21;;;;;;;;;;;;;;;;;;5083681;28;1178;-75
2022/06/08 08:49:54;;;;;;;;;;;;;;;;;;5066697;28;1182;-75
2022/06/08 08:52:19;;;;;;;;;;;;;;;;;;5063225;28;1309;-78
2022/06/08 08:54:57;;;;;;;;;;;;;;;;;;5070062;28;1169;-78
2022/06/08 08:57:43;;;;;;;;;;;;;;;;;;5062247;28;1331;-79
2022/06/08 09:00:16;;;;;;;;;;;;;;;;;;5062061;28;1967;-78
2022/06/08 09:05:28;;;;;;;;;;;;;;;;;;5084461;28;1166;-76
2022/06/08 09:07:54;;;;;;;;;;;;;;;;;;5083585;28;1180;-76
2022/06/08 09:10:21;;;;;;;;;;;;;;;;;;5076047;28;1243;-75
2022/06/08 09:12:46;;;;;;;;;;;;;;;;;;5082533;28;1188;-75
2022/06/08 09:15:13;;;;;;;;;;;;;;;;;;5067206;28;1376;-75
2022/06/08 09:17:40;;;;;;;;;;;;;;;;;;5065494;28;1176;-74
2022/06/08 09:20:23;;;;;;;;;;;;;;;;;;5062383;28;1957;-73
2022/06/08 09:22:52;;;;;;;;;;;;;;;;;;5065137;28;1203;-73
2022/06/08 09:25:26;;;;;;;;;;;;;;;;;;5054522;28;1255;-73
2022/06/08 09:27:52;;;;;;;;;;;;;;;;;;5062092;28;1152;-74
2022/06/08 09:30:23;;;;;;;;;;;;;;;;;;5059779;28;1285;-73
2022/06/08 09:32:49;;;;;;;;;;;;;;;;;;5064668;28;1168;-73
2022/06/08 09:35:17;;;;;;;;;;;;;;;;;;5060166;28;1190;-74
2022/06/08 09:37:43;;;;;;;;;;;;;;;;;;5065144;28;1203;-74
2022/06/08 09:40:36;;;;;;;;;;;;;;;;;;5058456;28;1886;-76
2022/06/08 09:43:18;;;;;;;;;;;;;;;;;;5063812;28;1065;-75
2022/06/08 09:45:49;;;;;;;;;;;;;;;;;;5068686;28;1120;-77
2022/06/08 09:51:26;;;;;;;;;;;;;;;;;;5087662;28;1044;-75
2022/06/08 09:54:09;;;;;;;;;;;;;;;;;;5085577;28;1302;-74
2022/06/08 09:56:41;;;;;;;;;;;;;;;;;;5087060;28;1152;-74
2022/06/08 09:59:16;;;;;;;;;;;;;;;;;;5085980;28;1905;-74
2022/06/08 10:01:45;;;;;;;;;;;;;;;;;;5085681;28;1333;-74
2022/06/08 10:04:29;;;;;;;;;;;;;;;;;;5069333;28;1372;-74
2022/06/08 10:07:18;;;;;;;;;;;;;;;;;;5069224;28;1197;-74
2022/06/08 10:09:49;;;;;;;;;;;;;;;;;;5063773;28;1484;-75
2022/06/08 10:12:14;;;;;;;;;;;;;;;;;;5082160;28;1159;-74
2022/06/08 10:14:48;;;;;;;;;;;;;;;;;;5087226;28;1310;-74
2022/06/08 10:17:17;;;;;;;;;;;;;;;;;;5080822;28;1166;-75
2022/06/08 10:20:01;;;;;;;;;;;;;;;;;;5067787;28;1987;-74
2022/06/08 10:22:28;;;;;;;;;;;;;;;;;;5065721;28;1207;-74
2022/06/08 10:25:12;;;;;;;;;;;;;;;;;;5061902;28;1214;-74
2022/06/08 10:27:52;;;;;;;;;;;;;;;;;;5064300;28;1278;-74
2022/06/08 10:30:25;;;;;;;;;;;;;;;;;;5066675;28;1219;-75
2022/06/08 10:32:57;;;;;;;;;;;;;;;;;;5067216;28;1206;-75
2022/06/08 10:35:25;;;;;;;;;;;;;;;;;;5065099;28;1140;-76
2022/06/08 10:37:51;;;;;;;;;;;;;;;;;;5074744;28;1153;-80
2022/06/08 10:40:20;;;;;;;;;;;;;;;;;;5062697;28;1921;-79
2022/06/08 10:42:46;;;;;;;;;;;;;;;;;;5084347;28;1308;-75
2022/06/08 10:45:20;;;;;;;;;;;;;;;;;;5085655;28;1218;-74
2022/06/08 10:48:11;;;;;;;;;;;;;;;;;;5086829;28;1265;-74
2022/06/08 10:50:42;;;;;;;;;;;;;;;;;;5063764;28;1252;-74
2022/06/08 10:56:28;;;;;;;;;;;;;;;;;;5057746;28;1135;-76
2022/06/08 10:58:53;;;;;;;;;;;;;;;;;;5056042;28;1918;-76
2022/06/08 11:01:30;;;;;;;;;;;;;;;;;;5061047;28;1183;-77
2022/06/08 11:03:56;;;;;;;;;;;;;;;;;;5066514;28;1187;-76
2022/06/08 11:06:40;;;;;;;;;;;;;;;;;;5058802;28;1202;-79
2022/06/08 11:09:10;;;;;;;;;;;;;;;;;;5065713;28;1182;-74
2022/06/08 11:11:44;;;;;;;;;;;;;;;;;;5062040;28;1177;-77
2022/06/08 11:14:25;;;;;;;;;;;;;;;;;;5078140;28;1260;-77
2022/06/08 11:16:52;;;;;;;;;;;;;;;;;;5066261;28;1471;-77
2022/06/08 11:19:18;;;;;;;;;;;;;;;;;;5061783;28;1963;-76
2022/06/08 11:22:00;;;;;;;;;;;;;;;;;;5048155;28;1411;-77
2022/06/08 11:24:28;;;;;;;;;;;;;;;;;;5060487;28;1195;-76
2022/06/08 11:27:13;;;;;;;;;;;;;;;;;;5077416;28;1238;-76
2022/06/08 11:29:44;;;;;;;;;;;;;;;;;;5086037;28;1244;-79
2022/06/08 11:32:20;;;;;;;;;;;;;;;;;;5085351;28;1301;-78
2022/06/08 11:35:01;;;;;;;;;;;;;;;;;;5086594;28;1264;-78
2022/06/08 11:37:45;;;;;;;;;;;;;;;;;;5086742;28;1022;-78
2022/06/08 11:40:20;;;;;;;;;;;;;;;;;;5083736;28;1904;-77
2022/06/08 11:42:50;;;;;;;;;;;;;;;;;;5076486;28;1442;-78
2022/06/08 11:45:18;;;;;;;;;;;;;;;;;;5064261;28;1166;-77
2022/06/08 11:48:04;;;;;;;;;;;;;;;;;;5066453;28;1370;-78
2022/06/08 11:50:41;;;;;;;;;;;;;;;;;;5063110;28;857;-77
2022/06/08 11:53:15;;;;;;;;;;;;;;;;;;5066924;28;1186;-78
2022/06/08 11:55:52;;;;;;;;;;;;;;;;;;5061055;28;1267;-78
2022/06/08 11:58:22;;;;;;;;;;;;;;;;;;5061920;28;1282;-77
2022/06/08 12:00:48;;;;;;;;;;;;;;;;;;5065367;28;1906;-77
2022/06/08 12:03:17;;;;;;;;;;;;;;;;;;5063861;28;1226;-78
2022/06/08 12:05:48;;;;;;;;;;;;;;;;;;5065759;28;1243;-78
2022/06/08 12:08:28;;;;;;;;;;;;;;;;;;5067150;28;798;-77
2022/06/08 12:10:54;;;;;;;;;;;;;;;;;;5059944;28;1218;-78
2022/06/08 12:13:21;;;;;;;;;;;;;;;;;;5062932;28;1364;-78
2022/06/08 12:15:54;;;;;;;;;;;;;;;;;;5075710;28;1290;-78
2022/06/08 12:18:29;;;;;;;;;;;;;;;;;;5084754;28;1296;-77
2022/06/08 12:21:20;;;;;;;;;;;;;;;;;;5085797;28;1882;-76
2022/06/08 12:24:04;;;;;;;;;;;;;;;;;;5065677;28;1208;-77
2022/06/08 12:26:57;;;;;;;;;;;;;;;;;;5082332;28;869;-77
2022/06/08 12:29:28;;;;;;;;;;;;;;;;;;5082078;28;1284;-77
2022/06/08 12:32:00;;;;;;;;;;;;;;;;;;5083646;28;1293;-76
2022/06/08 12:34:35;;;;;;;;;;;;;;;;;;5084356;28;873;-77
2022/06/08 12:37:21;;;;;;;;;;;;;;;;;;5083584;28;1244;-78
2022/06/08 12:39:46;;;;;;;;;;;;;;;;;;5083726;28;1908;-77
2022/06/08 12:42:24;;;;;;;;;;;;;;;;;;5079721;28;885;-77
2022/06/08 12:44:53;;;;;;;;;;;;;;;;;;5084048;28;1166;-77
2022/06/08 12:47:19;;;;;;;;;;;;;;;;;;5084016;28;1304;-79
2022/06/08 12:49:51;;;;;;;;;;;;;;;;;;5084127;28;1242;-78
2022/06/08 12:52:23;;;;;;;;;;;;;;;;;;5074051;28;1309;-77
2022/06/08 12:54:48;;;;;;;;;;;;;;;;;;5060752;28;1238;-77
2022/06/08 12:57:16;;;;;;;;;;;;;;;;;;5060057;28;900;-77
2022/06/08 12:59:45;;;;;;;;;;;;;;;;;;5062100;28;1969;-77
2022/06/08 13:02:12;;;;;;;;;;;;;;;;;;5063072;28;1293;-79
2022/06/08 13:04:37;;;;;;;;;;;;;;;;;;5063148;28;1344;-77
2022/06/08 13:07:03;;;;;;;;;;;;;;;;;;5063905;28;906;-76
2022/06/08 13:09:28;;;;;;;;;;;;;;;;;;5044770;28;1159;-78
2022/06/08 13:11:56;;;;;;;;;;;;;;;;;;5042337;28;1239;-79
2022/06/08 13:14:22;;;;;;;;;;;;;;;;;;5062290;28;1181;-77
2022/06/08 13:16:48;;;;;;;;;;;;;;;;;;5065225;28;1316;-77
2022/06/08 13:19:15;;;;;;;;;;;;;;;;;;5063148;28;1898;-77
2022/06/08 13:21:41;;;;;;;;;;;;;;;;;;5063672;28;802;-77
2022/06/08 13:24:07;;;;;;;;;;;;;;;;;;5059884;28;1375;-76
2022/06/08 13:26:34;;;;;;;;;;;;;;;;;;5060117;28;1194;-77
2022/06/08 13:28:59;;;;;;;;;;;;;;;;;;5062086;28;1378;-77
2022/06/08 13:31:26;;;;;;;;;;;;;;;;;;5046010;28;1290;-80
2022/06/08 13:33:56;;;;;;;;;;;;;;;;;;5064495;28;1186;-76
2022/06/08 13:36:27;;;;;;;;;;;;;;;;;;5059145;28;1306;-77
2022/06/08 13:38:58;;;;;;;;;;;;;;;;;;5059299;28;1969;-80
2022/06/08 13:41:33;;;;;;;;;;;;;;;;;;5075174;28;1521;-81
2022/06/08 13:43:59;;;;;;;;;;;;;;;;;;5052900;28;1042;-80
2022/06/08 13:46:29;;;;;;;;;;;;;;;;;;5059956;28;1317;-79
2022/06/08 13:48:56;;;;;;;;;;;;;;;;;;5074719;28;1349;-80
2022/06/08 13:51:24;;;;;;;;;;;;;;;;;;5071220;28;1285;-79
2022/06/08 13:53:54;;;;;;;;;;;;;;;;;;5058067;28;1296;-79
2022/06/08 13:56:20;;;;;;;;;;;;;;;;;;5076687;28;1292;-78
2022/06/08 13:58:45;;;;;;;;;;;;;;;;;;5066946;28;1890;-77
2022/06/08 14:01:31;;;;;;;;;;;;;;;;;;5064404;28;1293;-77
2022/06/08 14:03:57;;;;;;;;;;;;;;;;;;5066518;28;1290;-79
2022/06/08 14:14:54;;;;;;;;;;;;;;;;;;5075207;28;1034;-79
2022/06/08 14:17:21;;;;;;;;;;;;;;;;;;5082868;28;1297;-76
2022/06/08 14:19:52;;;;;;;;;;;;;;;;;;5081802;28;1898;-79
2022/06/08 14:22:19;;;;;;;;;;;;;;;;;;5082248;28;1162;-77
2022/06/08 14:24:46;;;;;;;;;;;;;;;;;;5081080;28;1297;-78
2022/06/08 14:27:12;;;;;;;;;;;;;;;;;;5077580;28;1288;-77
2022/06/08 14:29:38;;;;;;;;;;;;;;;;;;5049150;28;1281;-77
2022/06/08 14:32:11;;;;;;;;;;;;;;;;;;5068073;28;957;-77
2022/06/08 14:34:37;;;;;;;;;;;;;;;;;;5068688;28;759;-79
2022/06/08 14:37:04;;;;;;;;;;;;;;;;;;5048690;28;1178;-77
2022/06/08 14:39:35;;;;;;;;;;;;;;;;;;5064815;28;1910;-80
2022/06/08 14:42:01;;;;;;;;;;;;;;;;;;5066594;28;896;-79
2022/06/08 14:44:40;;;;;;;;;;;;;;;;;;5066957;28;873;-77
2022/06/08 14:47:13;;;;;;;;;;;;;;;;;;5067676;28;889;-77
2022/06/08 14:49:39;;;;;;;;;;;;;;;;;;5066148;28;1159;-77
2022/06/08 14:52:06;;;;;;;;;;;;;;;;;;5069518;28;869;-79
2022/06/08 14:54:36;;;;;;;;;;;;;;;;;;5066819;28;861;-77
2022/06/08 14:57:02;;;;;;;;;;;;;;;;;;5046576;28;1176;-77
2022/06/08 14:59:28;;;;;;;;;;;;;;;;;;5082685;28;1945;-77
2022/06/08 15:01:57;;;;;;;;;;;;;;;;;;5084719;28;1289;-77
2022/06/08 15:04:24;;;;;;;;;;;;;;;;;;5070443;28;1178;-77
2022/06/08 15:06:50;;;;;;;;;;;;;;;;;;5085046;28;1253;-76
2022/06/08 15:09:19;;;;;;;;;;;;;;;;;;5086266;28;1211;-77
2022/06/08 15:11:58;;;;;;;;;;;;;;;;;;5083317;28;1140;-77
2022/06/08 15:14:38;;;;;;;;;;;;;;;;;;5086914;28;1307;-78
2022/06/08 15:17:12;;;;;;;;;;;;;;;;;;5085719;28;1269;-78
2022/06/08 15:19:39;;;;;;;;;;;;;;;;;;5083831;28;1914;-77
2022/06/08 15:22:05;;;;;;;;;;;;;;;;;;5086435;28;1158;-76
2022/06/08 15:24:30;;;;;;;;;;;;;;;;;;5083589;28;1283;-76
2022/06/08 15:26:57;;;;;;;;;;;;;;;;;;5081485;28;1153;-76
2022/06/08 15:29:24;;;;;;;;;;;;;;;;;;5086112;28;1204;-78
2022/06/08 15:31:49;;;;;;;;;;;;;;;;;;5083439;28;1181;-77
2022/06/08 15:34:17;;;;;;;;;;;;;;;;;;5085436;28;1327;-78
2022/06/08 15:36:43;;;;;;;;;;;;;;;;;;5083858;28;1320;-77
2022/06/08 15:39:13;;;;;;;;;;;;;;;;;;5083125;28;1945;-76
2022/06/08 15:41:38;;;;;;;;;;;;;;;;;;5084498;28;1160;-78
2022/06/08 15:44:04;;;;;;;;;;;;;;;;;;5079864;28;1237;-75
2022/06/08 15:46:29;;;;;;;;;;;;;;;;;;5069517;28;1265;-75
2022/06/08 15:49:06;;;;;;;;;;;;;;;;;;5061797;28;1233;-76
2022/06/08 15:51:32;;;;;;;;;;;;;;;;;;5081803;28;1104;-75
2022/06/08 15:54:03;;;;;;;;;;;;;;;;;;5072856;28;1284;-75
2022/06/08 15:56:35;;;;;;;;;;;;;;;;;;5081946;28;1155;-76
2022/06/08 15:59:04;;;;;;;;;;;;;;;;;;5071060;28;1941;-76
2022/06/08 16:01:31;;;;;;;;;;;;;;;;;;5078619;28;1068;-75
2022/06/08 16:03:57;;;;;;;;;;;;;;;;;;5060822;28;1304;-75
2022/06/08 16:06:23;;;;;;;;;;;;;;;;;;5081745;28;1159;-76
2022/06/08 16:08:48;;;;;;;;;;;;;;;;;;5074310;28;1209;-78
2022/06/08 16:11:14;;;;;;;;;;;;;;;;;;5063600;28;1114;-78
2022/06/08 16:13:40;;;;;;;;;;;;;;;;;;5042722;28;1370;-74
2022/06/08 16:16:06;;;;;;;;;;;;;;;;;;5039906;28;1246;-74
2022/06/08 16:18:32;;;;;;;;;;;;;;;;;;5039170;28;1214;-74
2022/06/08 16:20:57;;;;;;;;;;;;;;;;;;5063476;28;2015;-74
2022/06/08 16:23:22;;;;;;;;;;;;;;;;;;5064178;28;1212;-74
2022/06/08 16:25:47;;;;;;;;;;;;;;;;;;5043470;28;1183;-74
2022/06/08 16:28:13;;;;;;;;;;;;;;;;;;5068553;28;1219;-77
2022/06/08 16:30:40;;;;;;;;;;;;;;;;;;5082707;28;1179;-76
2022/06/08 16:33:06;;;;;;;;;;;;;;;;;;5067217;28;1289;-75
2022/06/08 16:35:32;;;;;;;;;;;;;;;;;;5084564;28;1233;-75
2022/06/08 16:37:59;;;;;;;;;;;;;;;;;;5082439;28;1036;-75
2022/06/08 16:40:34;;;;;;;;;;;;;;;;;;5083402;28;1913;-75
2022/06/08 16:43:01;;;;;;;;;;;;;;;;;;5079730;28;1115;-75
2022/06/08 16:45:27;;;;;;;;;;;;;;;;;;5083743;28;1370;-75
2022/06/08 16:47:52;;;;;;;;;;;;;;;;;;5081724;28;1281;-75
2022/06/08 16:50:18;;;;;;;;;;;;;;;;;;5066172;28;1187;-75
2022/06/08 16:52:44;;;;;;;;;;;;;;;;;;5083972;28;1442;-76
2022/06/08 16:55:10;;;;;;;;;;;;;;;;;;5079193;28;1206;-74
2022/06/08 17:00:30;;;;;;;;;;;;;;;;;;5043250;28;1959;-75
2022/06/08 17:02:55;;;;;;;;;;;;;;;;;;5060523;28;1210;-75
2022/06/08 17:05:24;;;;;;;;;;;;;;;;;;5063248;28;1148;-74
2022/06/08 17:07:50;;;;;;;;;;;;;;;;;;5061982;28;1262;-74
2022/06/08 17:10:15;;;;;;;;;;;;;;;;;;5043799;28;1224;-75
2022/06/08 17:12:41;;;;;;;;;;;;;;;;;;5038912;28;1226;-74
2022/06/08 17:15:06;;;;;;;;;;;;;;;;;;5041408;28;1329;-75
2022/06/08 17:17:32;;;;;;;;;;;;;;;;;;5043163;28;1183;-73
2022/06/08 17:19:58;;;;;;;;;;;;;;;;;;5040512;28;1933;-74
2022/06/08 17:22:24;;;;;;;;;;;;;;;;;;5044090;28;1209;-75
2022/06/08 17:24:52;;;;;;;;;;;;;;;;;;5040017;28;1186;-75
2022/06/08 17:27:17;;;;;;;;;;;;;;;;;;5042650;28;1218;-76
2022/06/08 17:29:43;;;;;;;;;;;;;;;;;;5041769;28;1345;-76
2022/06/08 17:32:09;;;;;;;;;;;;;;;;;;5043974;28;921;-76
2022/06/08 17:34:35;;;;;;;;;;;;;;;;;;5043572;28;1214;-76
2022/06/08 17:37:01;;;;;;;;;;;;;;;;;;5027709;28;1310;-76
2022/06/08 17:39:26;;;;;;;;;;;;;;;;;;5041312;28;1916;-76
2022/06/08 17:42:21;;;;;;;;;;;;;;;;;;5024971;28;1284;-76